createdAt,value
2023-05-06T00:04:30.580Z,5.57
2023-05-06T00:09:38.377Z,5.20
2023-05-06T00:14:41.641Z,5.60
2023-05-06T00:19:45.871Z,5.15
2023-05-06T00:24:48.686Z,5.32
2023-05-06T00:29:51.514Z,5.73
2023-05-06T00:34:54.138Z,5.70
2023-05-06T00:40:03.732Z,5.40
2023-05-06T00:45:07.259Z,5.18
2023-05-06T00:50:10.485Z,5.57
2023-05-06T00:55:13.797Z,5.90
2023-05-06T01:00:24.611Z,6.00
2023-05-06T01:05:36.937Z,5.35
2023-05-06T01:10:46.773Z,5.45
2023-05-06T01:15:53.698Z,5.20
2023-05-06T01:20:56.916Z,4.82
2023-05-06T01:25:59.461Z,5.23
2023-05-06T01:31:06.073Z,5.65
2023-05-06T01:36:20.836Z,4.97
2023-05-06T01:41:25.691Z,5.45
2023-05-06T01:46:30.208Z,5.25
2023-05-06T01:51:34.492Z,5.03
2023-05-06T01:56:37.801Z,5.65
2023-05-06T02:01:40.568Z,5.43
2023-05-06T02:06:43.275Z,5.63
2023-05-06T02:11:48.582Z,5.90
2023-05-06T02:16:52.670Z,6.15
2023-05-06T02:21:56.626Z,5.50
2023-05-06T02:27:02.518Z,5.35
2023-05-06T02:32:05.605Z,6.10
2023-05-06T02:37:09.147Z,5.93
2023-05-06T02:47:16.637Z,5.72
2023-05-06T02:57:26.606Z,6.07
2023-05-06T03:02:29.289Z,5.15
2023-05-06T03:07:32.032Z,5.10
2023-05-06T03:12:35.726Z,5.90
2023-05-06T03:17:42.352Z,5.38
2023-05-06T03:22:45.792Z,5.97
2023-05-06T03:27:50.652Z,5.38
2023-05-06T03:33:01.413Z,6.50
2023-05-06T03:38:07.528Z,6.20
2023-05-06T03:43:18.690Z,5.63
2023-05-06T03:48:25.264Z,5.38
2023-05-06T03:53:29.315Z,6.40
2023-05-06T03:58:32.958Z,6.35
2023-05-06T04:03:36.677Z,6.57
2023-05-06T04:08:39.339Z,5.50
2023-05-06T04:13:42.238Z,6.57
2023-05-06T04:18:52.028Z,6.32
2023-05-06T04:23:54.941Z,6.35
2023-05-06T04:29:04.342Z,6.15
2023-05-06T04:34:11.683Z,6.55
2023-05-06T04:39:14.694Z,6.88
2023-05-06T04:44:17.816Z,6.55
2023-05-06T04:49:22.132Z,6.97
2023-05-06T04:54:25.751Z,8.10
2023-05-06T04:59:28.677Z,7.30
2023-05-06T05:04:31.585Z,8.00
2023-05-06T05:09:35.863Z,8.67
2023-05-06T05:14:39.195Z,8.15
2023-05-06T05:19:43.252Z,8.85
2023-05-06T05:24:47.582Z,9.60
2023-05-06T05:29:50.174Z,8.73
2023-05-06T05:34:53.324Z,8.13
2023-05-06T05:39:56.167Z,8.73
2023-05-06T05:45:00.612Z,9.13
2023-05-06T05:50:04.631Z,8.75
2023-05-06T06:00:13.556Z,7.28
2023-05-06T06:05:22.348Z,9.02
2023-05-06T06:10:24.877Z,7.93
2023-05-06T06:15:27.794Z,9.77
2023-05-06T06:20:30.289Z,8.57
2023-05-06T06:25:34.215Z,9.80
2023-05-06T06:30:36.949Z,9.40
2023-05-06T06:35:39.637Z,9.30
2023-05-06T06:40:42.336Z,10.23
2023-05-06T06:45:47.919Z,10.50
2023-05-06T06:50:50.574Z,9.80
2023-05-06T06:55:53.319Z,10.40
2023-05-06T07:00:55.805Z,9.80
2023-05-06T07:05:58.591Z,11.07
2023-05-06T07:11:01.748Z,10.32
2023-05-06T07:16:04.872Z,10.30
2023-05-06T07:21:07.547Z,10.27
2023-05-06T07:26:10.102Z,10.60
2023-05-06T07:31:12.793Z,10.85
2023-05-06T07:36:15.399Z,10.63
2023-05-06T07:41:19.261Z,10.40
2023-05-06T07:46:21.730Z,10.43
2023-05-06T07:51:24.919Z,10.40
2023-05-06T07:56:27.405Z,10.68
2023-05-06T08:01:29.991Z,11.02
2023-05-06T08:06:33.999Z,11.13
2023-05-06T08:11:36.891Z,11.35
2023-05-06T08:16:39.435Z,11.35
2023-05-06T08:21:41.922Z,11.10
2023-05-06T08:26:44.371Z,11.27
2023-05-06T08:31:49.039Z,11.73
2023-05-06T08:36:52.304Z,12.55
2023-05-06T08:41:56.694Z,10.07
2023-05-06T08:47:00.384Z,10.90
2023-05-06T08:57:12.547Z,17.27
2023-05-06T09:02:15.674Z,11.60
2023-05-06T09:07:18.838Z,8.05
2023-05-06T09:12:22.755Z,10.43
2023-05-06T09:17:26.946Z,10.80
2023-05-06T09:22:31.444Z,9.10
2023-05-06T09:27:35.144Z,12.35
2023-05-06T09:37:42.567Z,12.25
2023-05-06T09:42:45.189Z,10.68
2023-05-06T09:47:49.727Z,9.95
2023-05-06T09:52:52.604Z,11.90
2023-05-06T09:57:56.550Z,10.67
2023-05-06T10:02:59.548Z,11.43
2023-05-06T10:08:04.616Z,9.77
2023-05-06T10:13:07.198Z,22.02
2023-05-06T10:18:10.488Z,28.23
2023-05-06T10:23:25.929Z,29.75
2023-05-06T10:28:31.893Z,15.60
2023-05-06T10:33:35.020Z,12.77
2023-05-06T10:38:51.377Z,10.80
2023-05-06T10:43:59.606Z,11.45
2023-05-06T10:49:05.920Z,10.63
2023-05-06T10:54:24.562Z,11.30
2023-05-06T10:59:31.757Z,10.63
2023-05-06T11:04:35.061Z,10.77
2023-05-06T11:10:01.668Z,11.63
2023-05-06T11:15:38.250Z,10.50
2023-05-06T11:20:44.088Z,10.45
2023-05-06T11:25:52.680Z,10.88
2023-05-06T11:30:56.270Z,10.40
2023-05-06T11:36:00.522Z,9.68
2023-05-06T11:41:03.238Z,9.70
2023-05-06T11:46:07.499Z,10.23
2023-05-06T11:51:10.318Z,10.52
2023-05-06T11:56:14.979Z,11.23
2023-05-06T12:01:18.956Z,10.68
2023-05-06T12:06:32.920Z,10.32
2023-05-06T12:11:35.825Z,10.70
2023-05-06T12:16:38.784Z,10.70
2023-05-06T12:21:41.580Z,11.20
2023-05-06T12:26:47.245Z,11.32
2023-05-06T12:32:08.390Z,11.30
2023-05-06T12:37:25.014Z,11.85
2023-05-06T12:42:28.056Z,10.90
2023-05-06T12:47:31.892Z,15.02
2023-05-06T12:52:44.151Z,12.10
2023-05-06T12:57:54.928Z,14.15
2023-05-06T13:03:00.118Z,14.90
2023-05-06T13:08:07.423Z,11.73
2023-05-06T13:13:11.946Z,17.02
2023-05-06T13:18:34.394Z,31.13
2023-05-06T13:23:38.351Z,28.20
2023-05-06T13:28:41.460Z,23.65
2023-05-06T13:38:46.887Z,25.67
2023-05-06T13:43:50.976Z,19.80
2023-05-06T13:48:53.873Z,15.13
2023-05-06T13:53:57.790Z,25.60
2023-05-06T13:59:04.897Z,45.35
2023-05-06T14:04:09.957Z,48.80
2023-05-06T14:09:19.230Z,38.30
2023-05-06T14:14:22.347Z,21.50
2023-05-06T14:19:25.101Z,18.00
2023-05-06T14:24:28.000Z,16.27
2023-05-06T14:29:32.353Z,16.88
2023-05-06T14:34:37.653Z,12.68
2023-05-06T14:39:40.154Z,12.00
2023-05-06T14:44:43.603Z,15.98
2023-05-06T14:49:46.360Z,13.50
2023-05-06T14:54:49.202Z,19.20
2023-05-06T14:59:52.295Z,14.67
2023-05-06T15:04:59.758Z,12.82
2023-05-06T15:10:04.400Z,14.85
2023-05-06T15:15:07.866Z,13.45
2023-05-06T15:20:11.168Z,12.55
2023-05-06T15:25:30.276Z,14.10
2023-05-06T15:30:38.224Z,30.02
2023-05-06T15:35:41.757Z,20.65
2023-05-06T15:40:51.518Z,16.60
2023-05-06T15:45:54.915Z,14.45
2023-05-06T15:51:01.668Z,12.23
2023-05-06T15:56:18.191Z,10.90
2023-05-06T16:01:45.332Z,11.35
2023-05-06T16:06:48.920Z,14.47
2023-05-06T16:11:51.996Z,12.80
2023-05-06T16:16:54.653Z,12.13
2023-05-06T16:21:57.122Z,12.95
2023-05-06T16:26:59.567Z,12.20
2023-05-06T16:32:02.657Z,12.57
2023-05-06T16:37:07.738Z,13.70
2023-05-06T16:42:10.560Z,13.05
2023-05-06T16:47:13.566Z,14.85
2023-05-06T16:52:21.785Z,12.88
2023-05-06T16:57:24.583Z,11.48
2023-05-06T17:02:27.732Z,11.67
2023-05-06T17:07:31.258Z,9.90
2023-05-06T17:12:33.756Z,11.57
2023-05-06T17:17:36.439Z,11.40
2023-05-06T17:22:41.542Z,16.65
2023-05-06T17:27:44.709Z,16.80
2023-05-06T17:32:47.416Z,15.75
2023-05-06T17:37:49.981Z,13.43
2023-05-06T17:42:52.356Z,13.55
2023-05-06T17:47:55.337Z,23.95
2023-05-06T17:52:58.415Z,15.73
2023-05-06T17:58:00.791Z,12.27
2023-05-06T18:03:03.382Z,13.38
2023-05-06T18:08:07.084Z,13.80
2023-05-06T18:13:09.669Z,14.40
2023-05-06T18:18:12.448Z,12.83
2023-05-06T18:23:15.273Z,13.90
2023-05-06T18:28:17.713Z,12.63
2023-05-06T18:33:22.948Z,12.82
2023-05-06T18:38:26.694Z,12.70
2023-05-06T18:48:33.517Z,12.98
2023-05-06T18:53:38.245Z,12.98
2023-05-06T18:58:41.226Z,12.38
2023-05-06T19:03:43.635Z,12.05
2023-05-06T19:08:47.148Z,9.82
2023-05-06T19:13:50.706Z,10.85
2023-05-06T19:18:53.129Z,11.27
2023-05-06T19:23:59.976Z,9.50
2023-05-06T19:29:03.308Z,9.13
2023-05-06T19:34:05.826Z,12.95
2023-05-06T19:39:08.411Z,10.93
2023-05-06T19:44:11.236Z,9.88
2023-05-06T19:49:14.023Z,10.37
2023-05-06T19:54:22.086Z,11.02
2023-05-06T19:59:28.275Z,9.32
2023-05-06T20:04:31.595Z,12.38
2023-05-06T20:09:34.152Z,18.95
2023-05-06T20:14:38.949Z,14.30
2023-05-06T20:19:48.246Z,13.02
2023-05-06T20:24:53.448Z,12.25
2023-05-06T20:29:55.883Z,13.73
2023-05-06T20:34:58.560Z,12.50
2023-05-06T20:40:01.393Z,9.85
2023-05-06T20:45:07.408Z,11.60
2023-05-06T20:50:17.164Z,14.00
2023-05-06T20:55:23.484Z,11.75
2023-05-06T21:00:26.260Z,13.20
2023-05-06T21:05:28.868Z,13.33
2023-05-06T21:10:31.372Z,14.20
2023-05-06T21:15:34.288Z,12.75
2023-05-06T21:20:36.748Z,11.98
2023-05-06T21:25:39.276Z,12.05
2023-05-06T21:30:42.726Z,12.55
2023-05-06T21:40:49.237Z,11.90
2023-05-06T21:45:51.665Z,10.95
2023-05-06T21:50:58.445Z,11.90
2023-05-06T21:56:00.957Z,13.75
2023-05-06T22:01:04.169Z,11.27
2023-05-06T22:06:06.994Z,14.43
2023-05-06T22:11:09.352Z,13.70
2023-05-06T22:16:11.920Z,16.35
2023-05-06T22:21:14.588Z,12.63
2023-05-06T22:26:17.003Z,11.60
2023-05-06T22:31:21.298Z,11.50
2023-05-06T22:36:27.057Z,12.80
2023-05-06T22:41:30.366Z,11.20
2023-05-06T22:46:32.946Z,12.75
2023-05-06T22:51:35.498Z,13.43
2023-05-06T22:56:38.023Z,13.27
2023-05-06T23:01:40.507Z,12.60
2023-05-06T23:06:44.613Z,13.32
2023-05-06T23:11:47.389Z,12.52
2023-05-06T23:16:49.882Z,12.33
2023-05-06T23:21:52.363Z,13.23
2023-05-06T23:26:54.813Z,13.00
2023-05-06T23:31:57.261Z,13.13
2023-05-06T23:36:59.765Z,12.05
2023-05-06T23:42:05.297Z,12.50
2023-05-06T23:47:07.819Z,13.02
2023-05-06T23:52:10.474Z,12.00
2023-05-06T23:57:13.031Z,8.87
